sensor_id;sensor_type;location;lat;lon;timestamp;temperature;humidity
42479;DHT22;28110;47.080;9.476;2023-04-06T00:00:51;2.50;99.90
42479;DHT22;28110;47.080;9.476;2023-04-06T00:03:17;2.50;99.90
42479;DHT22;28110;47.080;9.476;2023-04-06T00:05:42;2.40;99.90
42479;DHT22;28110;47.080;9.476;2023-04-06T00:08:08;2.50;99.90
42479;DHT22;28110;47.080;9.476;2023-04-06T00:10:34;2.50;99.90
42479;DHT22;28110;47.080;9.476;2023-04-06T00:13:00;2.50;99.90
42479;DHT22;28110;47.080;9.476;2023-04-06T00:15:26;2.50;99.90
42479;DHT22;28110;47.080;9.476;2023-04-06T00:17:51;2.50;99.90
42479;DHT22;28110;47.080;9.476;2023-04-06T00:20:17;2.60;99.90
42479;DHT22;28110;47.080;9.476;2023-04-06T00:22:44;2.60;99.90
42479;DHT22;28110;47.080;9.476;2023-04-06T00:25:09;2.60;99.90
42479;DHT22;28110;47.080;9.476;2023-04-06T00:27:36;2.50;99.90
42479;DHT22;28110;47.080;9.476;2023-04-06T00:30:06;2.50;99.90
42479;DHT22;28110;47.080;9.476;2023-04-06T00:32:31;2.50;99.90
42479;DHT22;28110;47.080;9.476;2023-04-06T00:34:58;2.50;99.90
42479;DHT22;28110;47.080;9.476;2023-04-06T00:37:23;2.50;99.90
42479;DHT22;28110;47.080;9.476;2023-04-06T00:39:49;2.50;99.90
42479;DHT22;28110;47.080;9.476;2023-04-06T00:42:17;2.60;99.90
42479;DHT22;28110;47.080;9.476;2023-04-06T00:44:43;2.70;99.90
42479;DHT22;28110;47.080;9.476;2023-04-06T00:47:09;2.90;99.90
42479;DHT22;28110;47.080;9.476;2023-04-06T00:49:35;2.90;99.90
42479;DHT22;28110;47.080;9.476;2023-04-06T00:52:01;3.00;99.90
42479;DHT22;28110;47.080;9.476;2023-04-06T00:54:28;3.10;99.90
42479;DHT22;28110;47.080;9.476;2023-04-06T00:56:53;3.20;99.90
42479;DHT22;28110;47.080;9.476;2023-04-06T00:59:20;3.20;99.90
42479;DHT22;28110;47.080;9.476;2023-04-06T01:01:45;3.30;99.90
42479;DHT22;28110;47.080;9.476;2023-04-06T01:04:11;3.20;99.90
42479;DHT22;28110;47.080;9.476;2023-04-06T01:06:37;3.20;99.90
42479;DHT22;28110;47.080;9.476;2023-04-06T01:09:02;3.20;99.90
42479;DHT22;28110;47.080;9.476;2023-04-06T01:11:28;3.20;99.90
42479;DHT22;28110;47.080;9.476;2023-04-06T01:13:53;3.20;99.90
42479;DHT22;28110;47.080;9.476;2023-04-06T01:16:19;3.30;99.90
42479;DHT22;28110;47.080;9.476;2023-04-06T01:18:45;3.40;99.90
42479;DHT22;28110;47.080;9.476;2023-04-06T01:21:11;3.40;99.90
42479;DHT22;28110;47.080;9.476;2023-04-06T01:23:43;3.40;99.90
42479;DHT22;28110;47.080;9.476;2023-04-06T01:26:09;3.50;99.90
42479;DHT22;28110;47.080;9.476;2023-04-06T01:28:35;3.40;99.90
42479;DHT22;28110;47.080;9.476;2023-04-06T01:31:03;3.40;99.90
42479;DHT22;28110;47.080;9.476;2023-04-06T01:33:28;3.30;99.90
42479;DHT22;28110;47.080;9.476;2023-04-06T01:35:54;3.30;99.90
42479;DHT22;28110;47.080;9.476;2023-04-06T01:38:20;3.30;99.90
42479;DHT22;28110;47.080;9.476;2023-04-06T01:40:46;3.30;99.90
42479;DHT22;28110;47.080;9.476;2023-04-06T01:43:11;3.20;99.90
42479;DHT22;28110;47.080;9.476;2023-04-06T01:45:37;3.20;99.90
42479;DHT22;28110;47.080;9.476;2023-04-06T01:48:03;3.10;99.90
42479;DHT22;28110;47.080;9.476;2023-04-06T01:50:29;3.10;99.90
42479;DHT22;28110;47.080;9.476;2023-04-06T01:52:54;3.10;99.90
42479;DHT22;28110;47.080;9.476;2023-04-06T01:55:20;3.10;99.90
42479;DHT22;28110;47.080;9.476;2023-04-06T01:57:46;3.10;99.90
42479;DHT22;28110;47.080;9.476;2023-04-06T02:00:12;3.00;99.90
42479;DHT22;28110;47.080;9.476;2023-04-06T02:02:37;3.00;99.90
42479;DHT22;28110;47.080;9.476;2023-04-06T02:05:03;3.00;99.90
42479;DHT22;28110;47.080;9.476;2023-04-06T02:07:29;3.00;99.90
42479;DHT22;28110;47.080;9.476;2023-04-06T02:09:55;3.00;99.90
42479;DHT22;28110;47.080;9.476;2023-04-06T02:12:21;3.10;99.90
42479;DHT22;28110;47.080;9.476;2023-04-06T02:14:46;3.10;99.90
42479;DHT22;28110;47.080;9.476;2023-04-06T02:17:12;3.00;99.90
42479;DHT22;28110;47.080;9.476;2023-04-06T02:19:37;3.00;99.90
42479;DHT22;28110;47.080;9.476;2023-04-06T02:22:03;3.00;99.90
42479;DHT22;28110;47.080;9.476;2023-04-06T02:24:28;3.00;99.90
42479;DHT22;28110;47.080;9.476;2023-04-06T02:26:54;3.00;99.90
42479;DHT22;28110;47.080;9.476;2023-04-06T02:29:20;3.00;99.90
42479;DHT22;28110;47.080;9.476;2023-04-06T02:31:46;3.00;99.90
42479;DHT22;28110;47.080;9.476;2023-04-06T02:34:12;2.90;99.90
42479;DHT22;28110;47.080;9.476;2023-04-06T02:36:46;2.90;99.90
42479;DHT22;28110;47.080;9.476;2023-04-06T02:39:12;2.90;99.90
42479;DHT22;28110;47.080;9.476;2023-04-06T02:41:38;2.90;99.90
42479;DHT22;28110;47.080;9.476;2023-04-06T02:44:06;2.80;99.90
42479;DHT22;28110;47.080;9.476;2023-04-06T02:46:32;2.90;99.90
42479;DHT22;28110;47.080;9.476;2023-04-06T02:48:58;2.90;99.90
42479;DHT22;28110;47.080;9.476;2023-04-06T02:51:26;2.90;99.90
42479;DHT22;28110;47.080;9.476;2023-04-06T02:53:51;3.00;99.90
42479;DHT22;28110;47.080;9.476;2023-04-06T02:56:17;3.00;99.90
42479;DHT22;28110;47.080;9.476;2023-04-06T02:58:42;3.10;99.90
42479;DHT22;28110;47.080;9.476;2023-04-06T03:01:08;3.10;99.90
42479;DHT22;28110;47.080;9.476;2023-04-06T03:03:33;3.10;99.90
42479;DHT22;28110;47.080;9.476;2023-04-06T03:05:59;3.20;99.90
42479;DHT22;28110;47.080;9.476;2023-04-06T03:08:25;3.20;99.90
42479;DHT22;28110;47.080;9.476;2023-04-06T03:10:51;3.10;99.90
42479;DHT22;28110;47.080;9.476;2023-04-06T03:13:16;3.20;99.90
42479;DHT22;28110;47.080;9.476;2023-04-06T03:15:42;3.20;99.90
42479;DHT22;28110;47.080;9.476;2023-04-06T03:18:07;3.30;99.90
42479;DHT22;28110;47.080;9.476;2023-04-06T03:20:33;3.30;99.90
42479;DHT22;28110;47.080;9.476;2023-04-06T03:22:58;3.30;99.90
42479;DHT22;28110;47.080;9.476;2023-04-06T03:25:24;3.30;99.90
42479;DHT22;28110;47.080;9.476;2023-04-06T03:27:50;3.40;99.90
42479;DHT22;28110;47.080;9.476;2023-04-06T03:30:16;3.50;99.90
42479;DHT22;28110;47.080;9.476;2023-04-06T03:32:43;3.40;99.90
42479;DHT22;28110;47.080;9.476;2023-04-06T03:35:09;3.40;99.90
42479;DHT22;28110;47.080;9.476;2023-04-06T03:37:34;3.30;99.90
42479;DHT22;28110;47.080;9.476;2023-04-06T03:40:00;3.30;99.90
42479;DHT22;28110;47.080;9.476;2023-04-06T03:42:26;3.30;99.90
42479;DHT22;28110;47.080;9.476;2023-04-06T03:44:52;3.30;99.90
42479;DHT22;28110;47.080;9.476;2023-04-06T03:47:17;3.30;99.90
42479;DHT22;28110;47.080;9.476;2023-04-06T03:49:43;3.30;99.90
42479;DHT22;28110;47.080;9.476;2023-04-06T03:52:09;3.30;99.90
42479;DHT22;28110;47.080;9.476;2023-04-06T03:54:34;3.20;99.90
42479;DHT22;28110;47.080;9.476;2023-04-06T03:57:00;3.30;99.90
42479;DHT22;28110;47.080;9.476;2023-04-06T03:59:26;3.30;99.90
42479;DHT22;28110;47.080;9.476;2023-04-06T04:01:51;3.30;99.90
42479;DHT22;28110;47.080;9.476;2023-04-06T04:04:17;3.20;99.90
42479;DHT22;28110;47.080;9.476;2023-04-06T04:06:43;3.10;99.90
42479;DHT22;28110;47.080;9.476;2023-04-06T04:09:08;3.00;99.90
42479;DHT22;28110;47.080;9.476;2023-04-06T04:11:34;3.10;99.90
42479;DHT22;28110;47.080;9.476;2023-04-06T04:14:00;3.10;99.90
42479;DHT22;28110;47.080;9.476;2023-04-06T04:16:25;3.10;99.90
42479;DHT22;28110;47.080;9.476;2023-04-06T04:18:51;3.10;99.90
42479;DHT22;28110;47.080;9.476;2023-04-06T04:21:16;3.10;99.90
42479;DHT22;28110;47.080;9.476;2023-04-06T04:23:42;3.10;99.90
42479;DHT22;28110;47.080;9.476;2023-04-06T04:26:07;3.00;99.90
42479;DHT22;28110;47.080;9.476;2023-04-06T04:28:33;2.90;99.90
42479;DHT22;28110;47.080;9.476;2023-04-06T04:30:59;2.90;99.90
42479;DHT22;28110;47.080;9.476;2023-04-06T04:33:24;2.90;99.90
42479;DHT22;28110;47.080;9.476;2023-04-06T04:35:50;2.80;99.90
42479;DHT22;28110;47.080;9.476;2023-04-06T04:38:16;2.80;99.90
42479;DHT22;28110;47.080;9.476;2023-04-06T04:40:41;2.80;99.90
42479;DHT22;28110;47.080;9.476;2023-04-06T04:43:07;2.90;99.90
42479;DHT22;28110;47.080;9.476;2023-04-06T04:45:32;3.10;99.90
42479;DHT22;28110;47.080;9.476;2023-04-06T04:47:58;3.10;99.90
42479;DHT22;28110;47.080;9.476;2023-04-06T04:50:23;3.10;99.90
42479;DHT22;28110;47.080;9.476;2023-04-06T04:52:49;3.10;99.90
42479;DHT22;28110;47.080;9.476;2023-04-06T04:55:15;3.20;99.90
42479;DHT22;28110;47.080;9.476;2023-04-06T04:57:40;3.20;99.90
42479;DHT22;28110;47.080;9.476;2023-04-06T05:00:06;3.20;99.90
42479;DHT22;28110;47.080;9.476;2023-04-06T05:02:32;3.20;99.90
42479;DHT22;28110;47.080;9.476;2023-04-06T05:04:58;3.20;99.90
42479;DHT22;28110;47.080;9.476;2023-04-06T05:07:23;3.10;99.90
42479;DHT22;28110;47.080;9.476;2023-04-06T05:09:49;3.00;99.90
42479;DHT22;28110;47.080;9.476;2023-04-06T05:12:15;3.10;99.90
42479;DHT22;28110;47.080;9.476;2023-04-06T05:14:40;3.00;99.90
42479;DHT22;28110;47.080;9.476;2023-04-06T05:17:06;3.00;99.90
42479;DHT22;28110;47.080;9.476;2023-04-06T05:19:32;3.00;99.90
42479;DHT22;28110;47.080;9.476;2023-04-06T05:21:57;2.90;99.90
42479;DHT22;28110;47.080;9.476;2023-04-06T05:24:23;2.90;99.90
42479;DHT22;28110;47.080;9.476;2023-04-06T05:26:49;2.80;99.90
42479;DHT22;28110;47.080;9.476;2023-04-06T05:29:15;2.80;99.90
42479;DHT22;28110;47.080;9.476;2023-04-06T05:31:43;2.90;99.90
42479;DHT22;28110;47.080;9.476;2023-04-06T05:34:09;2.80;99.90
42479;DHT22;28110;47.080;9.476;2023-04-06T05:36:35;2.90;99.90
42479;DHT22;28110;47.080;9.476;2023-04-06T05:39:00;2.80;99.90
42479;DHT22;28110;47.080;9.476;2023-04-06T05:41:26;2.90;99.90
42479;DHT22;28110;47.080;9.476;2023-04-06T05:43:51;2.90;99.90
42479;DHT22;28110;47.080;9.476;2023-04-06T05:46:17;2.90;99.90
42479;DHT22;28110;47.080;9.476;2023-04-06T05:48:43;3.00;99.90
42479;DHT22;28110;47.080;9.476;2023-04-06T05:51:09;3.10;99.90
42479;DHT22;28110;47.080;9.476;2023-04-06T05:53:34;3.20;99.90
42479;DHT22;28110;47.080;9.476;2023-04-06T05:56:03;3.30;99.50
42479;DHT22;28110;47.080;9.476;2023-04-06T05:58:29;3.30;99.90
42479;DHT22;28110;47.080;9.476;2023-04-06T06:00:58;3.30;99.70
42479;DHT22;28110;47.080;9.476;2023-04-06T06:03:24;3.40;99.50
42479;DHT22;28110;47.080;9.476;2023-04-06T06:05:49;3.30;99.90
42479;DHT22;28110;47.080;9.476;2023-04-06T06:08:15;3.30;99.90
42479;DHT22;28110;47.080;9.476;2023-04-06T06:10:41;3.40;99.20
42479;DHT22;28110;47.080;9.476;2023-04-06T06:13:06;3.40;98.90
42479;DHT22;28110;47.080;9.476;2023-04-06T06:15:32;3.50;98.50
42479;DHT22;28110;47.080;9.476;2023-04-06T06:17:57;3.60;98.10
42479;DHT22;28110;47.080;9.476;2023-04-06T06:20:23;3.80;98.00
42479;DHT22;28110;47.080;9.476;2023-04-06T06:22:48;3.90;97.70
42479;DHT22;28110;47.080;9.476;2023-04-06T06:25:14;4.00;96.70
42479;DHT22;28110;47.080;9.476;2023-04-06T06:27:40;4.00;96.60
42479;DHT22;28110;47.080;9.476;2023-04-06T06:30:07;4.10;97.10
42479;DHT22;28110;47.080;9.476;2023-04-06T06:32:33;4.20;97.00
42479;DHT22;28110;47.080;9.476;2023-04-06T06:34:58;4.30;96.70
42479;DHT22;28110;47.080;9.476;2023-04-06T06:37:24;4.30;96.60
42479;DHT22;28110;47.080;9.476;2023-04-06T06:39:50;4.30;96.50
42479;DHT22;28110;47.080;9.476;2023-04-06T06:42:15;4.40;96.10
42479;DHT22;28110;47.080;9.476;2023-04-06T06:44:41;4.40;96.30
42479;DHT22;28110;47.080;9.476;2023-04-06T06:47:06;4.40;95.70
42479;DHT22;28110;47.080;9.476;2023-04-06T06:49:32;4.40;95.80
42479;DHT22;28110;47.080;9.476;2023-04-06T06:51:57;4.50;95.70
42479;DHT22;28110;47.080;9.476;2023-04-06T06:54:23;4.50;95.10
42479;DHT22;28110;47.080;9.476;2023-04-06T06:56:48;4.60;95.10
42479;DHT22;28110;47.080;9.476;2023-04-06T06:59:14;4.80;93.50
42479;DHT22;28110;47.080;9.476;2023-04-06T07:01:41;4.80;93.60
42479;DHT22;28110;47.080;9.476;2023-04-06T07:04:07;4.90;93.30
42479;DHT22;28110;47.080;9.476;2023-04-06T07:06:35;5.00;93.70
42479;DHT22;28110;47.080;9.476;2023-04-06T07:09:01;5.10;93.40
42479;DHT22;28110;47.080;9.476;2023-04-06T07:11:29;5.20;93.30
42479;DHT22;28110;47.080;9.476;2023-04-06T07:13:54;5.30;93.40
42479;DHT22;28110;47.080;9.476;2023-04-06T07:16:20;5.50;92.70
42479;DHT22;28110;47.080;9.476;2023-04-06T07:18:46;5.60;91.00
42479;DHT22;28110;47.080;9.476;2023-04-06T07:21:11;5.70;90.70
42479;DHT22;28110;47.080;9.476;2023-04-06T07:23:37;5.90;90.10
42479;DHT22;28110;47.080;9.476;2023-04-06T07:26:03;6.00;90.10
42479;DHT22;28110;47.080;9.476;2023-04-06T07:28:28;6.10;88.10
42479;DHT22;28110;47.080;9.476;2023-04-06T07:30:54;6.30;90.00
42479;DHT22;28110;47.080;9.476;2023-04-06T07:33:20;6.50;90.20
42479;DHT22;28110;47.080;9.476;2023-04-06T07:35:45;6.70;88.80
42479;DHT22;28110;47.080;9.476;2023-04-06T07:38:11;6.90;87.50
42479;DHT22;28110;47.080;9.476;2023-04-06T07:40:36;6.90;87.10
42479;DHT22;28110;47.080;9.476;2023-04-06T07:43:02;7.10;88.30
42479;DHT22;28110;47.080;9.476;2023-04-06T07:45:28;7.20;87.80
42479;DHT22;28110;47.080;9.476;2023-04-06T07:47:54;7.40;87.40
42479;DHT22;28110;47.080;9.476;2023-04-06T07:50:20;7.60;86.40
42479;DHT22;28110;47.080;9.476;2023-04-06T07:52:45;7.60;84.80
42479;DHT22;28110;47.080;9.476;2023-04-06T07:55:11;7.80;87.20
42479;DHT22;28110;47.080;9.476;2023-04-06T07:57:37;7.90;86.60
42479;DHT22;28110;47.080;9.476;2023-04-06T08:00:03;8.00;85.70
42479;DHT22;28110;47.080;9.476;2023-04-06T08:02:30;8.10;85.40
42479;DHT22;28110;47.080;9.476;2023-04-06T08:04:56;8.20;81.90
42479;DHT22;28110;47.080;9.476;2023-04-06T08:07:22;8.30;81.90
42479;DHT22;28110;47.080;9.476;2023-04-06T08:09:47;8.30;82.90
42479;DHT22;28110;47.080;9.476;2023-04-06T08:12:13;8.40;83.00
42479;DHT22;28110;47.080;9.476;2023-04-06T08:14:39;8.50;81.10
42479;DHT22;28110;47.080;9.476;2023-04-06T08:17:05;8.60;83.30
42479;DHT22;28110;47.080;9.476;2023-04-06T08:19:30;8.70;81.00
42479;DHT22;28110;47.080;9.476;2023-04-06T08:21:56;8.90;79.60
42479;DHT22;28110;47.080;9.476;2023-04-06T08:24:21;9.00;81.20
42479;DHT22;28110;47.080;9.476;2023-04-06T08:26:47;9.10;78.90
42479;DHT22;28110;47.080;9.476;2023-04-06T08:29:12;9.20;78.60
42479;DHT22;28110;47.080;9.476;2023-04-06T08:31:38;9.40;79.90
42479;DHT22;28110;47.080;9.476;2023-04-06T08:34:04;9.50;78.60
42479;DHT22;28110;47.080;9.476;2023-04-06T08:36:30;9.60;79.20
42479;DHT22;28110;47.080;9.476;2023-04-06T08:38:56;9.60;77.30
42479;DHT22;28110;47.080;9.476;2023-04-06T08:41:22;9.70;76.60
42479;DHT22;28110;47.080;9.476;2023-04-06T08:44:01;9.70;75.80
42479;DHT22;28110;47.080;9.476;2023-04-06T08:46:28;9.70;74.30
42479;DHT22;28110;47.080;9.476;2023-04-06T08:49:02;9.80;74.40
42479;DHT22;28110;47.080;9.476;2023-04-06T08:51:29;9.90;75.20
42479;DHT22;28110;47.080;9.476;2023-04-06T08:53:57;10.00;75.60
42479;DHT22;28110;47.080;9.476;2023-04-06T08:56:27;10.10;76.80
42479;DHT22;28110;47.080;9.476;2023-04-06T08:58:54;10.10;76.00
42479;DHT22;28110;47.080;9.476;2023-04-06T09:01:26;10.20;75.90
42479;DHT22;28110;47.080;9.476;2023-04-06T09:03:56;10.30;75.30
42479;DHT22;28110;47.080;9.476;2023-04-06T09:06:22;10.40;73.50
42479;DHT22;28110;47.080;9.476;2023-04-06T09:08:47;10.40;69.10
42479;DHT22;28110;47.080;9.476;2023-04-06T09:11:13;10.30;71.60
42479;DHT22;28110;47.080;9.476;2023-04-06T09:16:14;10.50;72.00
42479;DHT22;28110;47.080;9.476;2023-04-06T09:18:41;10.60;70.00
42479;DHT22;28110;47.080;9.476;2023-04-06T09:21:07;10.60;70.30
42479;DHT22;28110;47.080;9.476;2023-04-06T09:23:33;10.60;67.90
42479;DHT22;28110;47.080;9.476;2023-04-06T09:26:06;10.70;67.10
42479;DHT22;28110;47.080;9.476;2023-04-06T09:28:42;10.80;65.40
42479;DHT22;28110;47.080;9.476;2023-04-06T09:31:08;10.90;65.40
42479;DHT22;28110;47.080;9.476;2023-04-06T09:33:38;10.90;65.80
42479;DHT22;28110;47.080;9.476;2023-04-06T09:36:04;11.10;65.60
42479;DHT22;28110;47.080;9.476;2023-04-06T09:38:30;11.10;64.80
42479;DHT22;28110;47.080;9.476;2023-04-06T09:40:56;11.20;63.50
42479;DHT22;28110;47.080;9.476;2023-04-06T09:43:28;11.30;63.70
42479;DHT22;28110;47.080;9.476;2023-04-06T09:45:55;11.30;58.50
42479;DHT22;28110;47.080;9.476;2023-04-06T09:48:22;11.40;61.40
42479;DHT22;28110;47.080;9.476;2023-04-06T09:50:52;11.50;61.90
42479;DHT22;28110;47.080;9.476;2023-04-06T09:53:21;11.60;62.30
42479;DHT22;28110;47.080;9.476;2023-04-06T09:55:56;11.60;60.20
42479;DHT22;28110;47.080;9.476;2023-04-06T09:58:23;11.60;59.50
42479;DHT22;28110;47.080;9.476;2023-04-06T10:06:11;11.80;58.90
42479;DHT22;28110;47.080;9.476;2023-04-06T10:08:37;11.80;59.60
42479;DHT22;28110;47.080;9.476;2023-04-06T10:11:06;12.00;59.60
42479;DHT22;28110;47.080;9.476;2023-04-06T10:13:31;12.10;59.90
42479;DHT22;28110;47.080;9.476;2023-04-06T10:15:57;12.10;58.50
42479;DHT22;28110;47.080;9.476;2023-04-06T10:18:25;12.10;56.50
42479;DHT22;28110;47.080;9.476;2023-04-06T10:20:56;12.10;57.20
42479;DHT22;28110;47.080;9.476;2023-04-06T10:23:44;12.10;59.00
42479;DHT22;28110;47.080;9.476;2023-04-06T10:26:15;12.30;57.60
42479;DHT22;28110;47.080;9.476;2023-04-06T10:28:42;12.30;57.30
42479;DHT22;28110;47.080;9.476;2023-04-06T10:31:08;12.30;56.00
42479;DHT22;28110;47.080;9.476;2023-04-06T10:33:34;12.40;57.00
42479;DHT22;28110;47.080;9.476;2023-04-06T10:36:22;12.40;55.40
42479;DHT22;28110;47.080;9.476;2023-04-06T10:38:55;12.30;53.60
42479;DHT22;28110;47.080;9.476;2023-04-06T10:41:21;12.30;54.80
42479;DHT22;28110;47.080;9.476;2023-04-06T10:43:55;12.40;58.60
42479;DHT22;28110;47.080;9.476;2023-04-06T10:46:30;12.20;55.40
42479;DHT22;28110;47.080;9.476;2023-04-06T10:48:56;12.20;57.00
42479;DHT22;28110;47.080;9.476;2023-04-06T10:51:26;12.30;54.10
42479;DHT22;28110;47.080;9.476;2023-04-06T10:53:53;12.40;51.30
42479;DHT22;28110;47.080;9.476;2023-04-06T10:56:22;12.50;51.70
42479;DHT22;28110;47.080;9.476;2023-04-06T10:58:53;12.50;53.20
42479;DHT22;28110;47.080;9.476;2023-04-06T11:01:20;12.50;55.00
42479;DHT22;28110;47.080;9.476;2023-04-06T11:03:54;12.60;53.50
42479;DHT22;28110;47.080;9.476;2023-04-06T11:06:26;12.70;52.30
42479;DHT22;28110;47.080;9.476;2023-04-06T11:08:52;12.80;50.90
42479;DHT22;28110;47.080;9.476;2023-04-06T11:11:20;12.80;51.30
42479;DHT22;28110;47.080;9.476;2023-04-06T11:19:00;12.90;48.90
42479;DHT22;28110;47.080;9.476;2023-04-06T11:21:36;12.90;49.40
42479;DHT22;28110;47.080;9.476;2023-04-06T11:24:13;13.00;50.40
42479;DHT22;28110;47.080;9.476;2023-04-06T11:27:00;13.10;50.30
42479;DHT22;28110;47.080;9.476;2023-04-06T11:29:28;13.20;50.00
42479;DHT22;28110;47.080;9.476;2023-04-06T11:31:58;13.20;50.90
42479;DHT22;28110;47.080;9.476;2023-04-06T11:34:25;13.20;48.70
42479;DHT22;28110;47.080;9.476;2023-04-06T11:36:56;13.30;48.00
42479;DHT22;28110;47.080;9.476;2023-04-06T11:39:24;13.40;49.80
42479;DHT22;28110;47.080;9.476;2023-04-06T11:41:51;13.30;49.80
42479;DHT22;28110;47.080;9.476;2023-04-06T11:44:37;13.30;45.10
42479;DHT22;28110;47.080;9.476;2023-04-06T11:47:09;13.30;47.30
42479;DHT22;28110;47.080;9.476;2023-04-06T11:49:44;13.30;46.70
42479;DHT22;28110;47.080;9.476;2023-04-06T11:52:18;13.30;46.20
42479;DHT22;28110;47.080;9.476;2023-04-06T11:54:45;13.50;46.60
42479;DHT22;28110;47.080;9.476;2023-04-06T11:57:11;13.50;47.30
42479;DHT22;28110;47.080;9.476;2023-04-06T11:59:36;13.50;45.50
42479;DHT22;28110;47.080;9.476;2023-04-06T12:02:03;13.40;46.40
42479;DHT22;28110;47.080;9.476;2023-04-06T12:04:29;13.40;47.50
42479;DHT22;28110;47.080;9.476;2023-04-06T12:06:55;13.30;46.30
42479;DHT22;28110;47.080;9.476;2023-04-06T12:09:20;13.30;44.80
42479;DHT22;28110;47.080;9.476;2023-04-06T12:11:46;13.20;42.00
42479;DHT22;28110;47.080;9.476;2023-04-06T12:14:12;13.30;45.80
42479;DHT22;28110;47.080;9.476;2023-04-06T12:16:38;13.30;47.80
42479;DHT22;28110;47.080;9.476;2023-04-06T12:19:04;13.30;46.10
42479;DHT22;28110;47.080;9.476;2023-04-06T12:21:33;13.40;46.10
42479;DHT22;28110;47.080;9.476;2023-04-06T12:24:00;13.50;46.70
42479;DHT22;28110;47.080;9.476;2023-04-06T12:26:27;13.50;47.70
42479;DHT22;28110;47.080;9.476;2023-04-06T12:28:52;13.40;44.70
42479;DHT22;28110;47.080;9.476;2023-04-06T12:31:19;13.20;45.30
42479;DHT22;28110;47.080;9.476;2023-04-06T12:33:51;13.10;45.00
42479;DHT22;28110;47.080;9.476;2023-04-06T12:36:18;13.00;45.00
42479;DHT22;28110;47.080;9.476;2023-04-06T12:38:46;13.00;46.90
42479;DHT22;28110;47.080;9.476;2023-04-06T12:41:12;13.10;46.30
42479;DHT22;28110;47.080;9.476;2023-04-06T12:43:39;13.10;43.90
42479;DHT22;28110;47.080;9.476;2023-04-06T12:46:05;13.10;44.40
42479;DHT22;28110;47.080;9.476;2023-04-06T12:48:31;13.10;45.20
42479;DHT22;28110;47.080;9.476;2023-04-06T12:51:00;13.00;45.70
42479;DHT22;28110;47.080;9.476;2023-04-06T12:53:27;12.90;45.50
42479;DHT22;28110;47.080;9.476;2023-04-06T12:55:54;12.80;45.50
42479;DHT22;28110;47.080;9.476;2023-04-06T12:58:21;12.90;46.30
42479;DHT22;28110;47.080;9.476;2023-04-06T13:00:47;12.90;46.30
42479;DHT22;28110;47.080;9.476;2023-04-06T13:03:13;13.00;47.00
42479;DHT22;28110;47.080;9.476;2023-04-06T13:05:46;13.00;47.20
42479;DHT22;28110;47.080;9.476;2023-04-06T13:08:12;13.10;48.70
42479;DHT22;28110;47.080;9.476;2023-04-06T13:10:38;13.10;47.00
42479;DHT22;28110;47.080;9.476;2023-04-06T13:13:04;13.10;45.70
42479;DHT22;28110;47.080;9.476;2023-04-06T13:15:30;13.10;47.00
42479;DHT22;28110;47.080;9.476;2023-04-06T13:17:57;13.10;45.20
42479;DHT22;28110;47.080;9.476;2023-04-06T13:20:22;13.10;45.80
42479;DHT22;28110;47.080;9.476;2023-04-06T13:22:50;13.00;45.90
42479;DHT22;28110;47.080;9.476;2023-04-06T13:25:15;13.10;47.50
42479;DHT22;28110;47.080;9.476;2023-04-06T13:27:41;13.10;47.00
42479;DHT22;28110;47.080;9.476;2023-04-06T13:30:09;13.20;47.30
42479;DHT22;28110;47.080;9.476;2023-04-06T13:32:35;13.20;47.00
42479;DHT22;28110;47.080;9.476;2023-04-06T13:35:01;13.20;46.80
42479;DHT22;28110;47.080;9.476;2023-04-06T13:37:28;13.10;47.00
42479;DHT22;28110;47.080;9.476;2023-04-06T13:39:54;13.10;47.20
42479;DHT22;28110;47.080;9.476;2023-04-06T13:42:20;13.10;46.70
42479;DHT22;28110;47.080;9.476;2023-04-06T13:44:46;13.10;44.80
42479;DHT22;28110;47.080;9.476;2023-04-06T13:47:12;13.10;48.00
42479;DHT22;28110;47.080;9.476;2023-04-06T13:49:38;13.10;46.80
42479;DHT22;28110;47.080;9.476;2023-04-06T13:52:04;13.10;48.30
42479;DHT22;28110;47.080;9.476;2023-04-06T13:54:30;13.10;47.80
42479;DHT22;28110;47.080;9.476;2023-04-06T13:56:55;13.10;48.90
42479;DHT22;28110;47.080;9.476;2023-04-06T13:59:21;13.10;48.70
42479;DHT22;28110;47.080;9.476;2023-04-06T14:01:47;13.20;47.40
42479;DHT22;28110;47.080;9.476;2023-04-06T14:04:13;13.10;47.00
42479;DHT22;28110;47.080;9.476;2023-04-06T14:06:38;13.10;47.80
42479;DHT22;28110;47.080;9.476;2023-04-06T14:09:04;13.10;46.90
42479;DHT22;28110;47.080;9.476;2023-04-06T14:11:30;13.10;48.70
42479;DHT22;28110;47.080;9.476;2023-04-06T14:13:57;13.10;48.20
42479;DHT22;28110;47.080;9.476;2023-04-06T14:16:23;13.10;47.70
42479;DHT22;28110;47.080;9.476;2023-04-06T14:18:49;13.10;48.50
42479;DHT22;28110;47.080;9.476;2023-04-06T14:21:14;13.10;49.70
42479;DHT22;28110;47.080;9.476;2023-04-06T14:23:40;13.20;49.00
42479;DHT22;28110;47.080;9.476;2023-04-06T14:26:07;13.10;47.00
42479;DHT22;28110;47.080;9.476;2023-04-06T14:28:34;13.10;46.90
42479;DHT22;28110;47.080;9.476;2023-04-06T14:31:10;13.10;48.10
42479;DHT22;28110;47.080;9.476;2023-04-06T14:33:40;13.10;47.90
42479;DHT22;28110;47.080;9.476;2023-04-06T14:36:06;13.10;46.30
42479;DHT22;28110;47.080;9.476;2023-04-06T14:38:32;13.10;46.90
42479;DHT22;28110;47.080;9.476;2023-04-06T14:40:58;13.00;46.10
42479;DHT22;28110;47.080;9.476;2023-04-06T14:43:23;12.90;47.00
42479;DHT22;28110;47.080;9.476;2023-04-06T14:45:50;12.90;47.50
42479;DHT22;28110;47.080;9.476;2023-04-06T14:48:15;12.90;47.10
42479;DHT22;28110;47.080;9.476;2023-04-06T14:50:54;12.80;47.60
42479;DHT22;28110;47.080;9.476;2023-04-06T14:53:21;12.90;48.70
42479;DHT22;28110;47.080;9.476;2023-04-06T14:55:47;13.00;48.30
42479;DHT22;28110;47.080;9.476;2023-04-06T14:58:12;13.10;47.10
42479;DHT22;28110;47.080;9.476;2023-04-06T15:00:38;13.10;48.30
42479;DHT22;28110;47.080;9.476;2023-04-06T15:03:04;13.00;47.70
42479;DHT22;28110;47.080;9.476;2023-04-06T15:05:29;13.00;47.70
42479;DHT22;28110;47.080;9.476;2023-04-06T15:07:56;13.00;46.30
42479;DHT22;28110;47.080;9.476;2023-04-06T15:10:22;13.00;46.60
42479;DHT22;28110;47.080;9.476;2023-04-06T15:12:47;12.90;46.40
42479;DHT22;28110;47.080;9.476;2023-04-06T15:15:13;13.00;47.20
42479;DHT22;28110;47.080;9.476;2023-04-06T15:17:38;12.90;46.80
42479;DHT22;28110;47.080;9.476;2023-04-06T15:20:05;12.90;46.60
42479;DHT22;28110;47.080;9.476;2023-04-06T15:22:31;12.90;48.50
42479;DHT22;28110;47.080;9.476;2023-04-06T15:24:56;12.90;46.80
42479;DHT22;28110;47.080;9.476;2023-04-06T15:27:23;13.00;47.00
42479;DHT22;28110;47.080;9.476;2023-04-06T15:29:48;12.90;45.10
42479;DHT22;28110;47.080;9.476;2023-04-06T15:32:14;13.00;45.10
42479;DHT22;28110;47.080;9.476;2023-04-06T15:34:40;13.00;44.30
42479;DHT22;28110;47.080;9.476;2023-04-06T15:37:05;12.90;44.20
42479;DHT22;28110;47.080;9.476;2023-04-06T15:39:32;12.90;44.30
42479;DHT22;28110;47.080;9.476;2023-04-06T15:41:57;12.90;44.30
42479;DHT22;28110;47.080;9.476;2023-04-06T15:44:23;12.80;44.10
42479;DHT22;28110;47.080;9.476;2023-04-06T15:46:49;12.70;44.30
42479;DHT22;28110;47.080;9.476;2023-04-06T15:49:17;12.60;45.50